Time;durP1;ratioP1;P1;durP2;ratioP2;P2;SDS_P1;SDS_P2;PMS_P1;PMS_P2;Temp;Humidity;BMP_temperature;BMP_pressure;BME280_temperature;BME280_humidity;BME280_pressure;Samples;Min_cycle;Max_cycle;Signal;HPM_P1;HPM_P2
2021/07/24 00:00:21;;;;;;;12.40;10.83;;;19.00;99.90;;;;;;5075059;28;20942;-90
2021/07/24 00:02:47;;;;;;;12.90;11.60;;;19.00;99.90;;;;;;5075526;28;20547;-91
2021/07/24 00:05:14;;;;;;;12.93;11.53;;;19.00;99.90;;;;;;5075766;28;20475;-91
2021/07/24 00:07:45;;;;;;;12.57;11.13;;;18.90;99.90;;;;;;5075659;28;20455;-90
2021/07/24 00:10:12;;;;;;;13.60;12.23;;;18.90;99.90;;;;;;5075827;28;20440;-91
2021/07/24 00:12:39;;;;;;;12.33;11.23;;;18.80;99.90;;;;;;5088354;28;20508;-90
2021/07/24 00:15:06;;;;;;;12.90;11.77;;;18.80;99.90;;;;;;5095674;28;20482;-92
2021/07/24 00:17:32;;;;;;;12.40;11.20;;;18.70;99.90;;;;;;5095531;28;20446;-91
2021/07/24 00:19:59;;;;;;;13.37;11.90;;;18.70;99.90;;;;;;5095497;28;20474;-91
2021/07/24 00:22:26;;;;;;;13.93;12.53;;;18.60;99.90;;;;;;5095252;28;20992;-91
2021/07/24 00:24:53;;;;;;;13.00;11.63;;;18.60;99.90;;;;;;5095389;28;20486;-90
2021/07/24 00:27:20;;;;;;;12.93;11.70;;;18.60;99.90;;;;;;5095123;28;20450;-90
2021/07/24 00:29:46;;;;;;;16.47;13.50;;;18.50;99.90;;;;;;5095239;28;20805;-91
2021/07/24 00:32:13;;;;;;;12.93;11.70;;;18.50;99.90;;;;;;5095062;28;20478;-90
2021/07/24 00:34:40;;;;;;;13.27;12.13;;;18.50;99.90;;;;;;5094782;28;20528;-91
2021/07/24 00:37:06;;;;;;;13.43;12.13;;;18.50;99.90;;;;;;5094989;28;20486;-90
2021/07/24 00:39:33;;;;;;;13.27;12.00;;;18.50;99.90;;;;;;5094904;28;20476;-90
2021/07/24 00:42:13;;;;;;;14.13;11.43;;;18.50;99.90;;;;;;5095114;28;20870;-90
2021/07/24 00:44:44;;;;;;;13.30;12.10;;;18.40;99.90;;;;;;5095004;28;20457;-91
2021/07/24 00:47:12;;;;;;;13.67;12.23;;;18.40;99.90;;;;;;5094762;28;20504;-90
2021/07/24 00:49:39;;;;;;;11.50;10.50;;;18.40;99.90;;;;;;5094954;28;20495;-90
2021/07/24 00:52:06;;;;;;;13.30;12.13;;;18.30;99.90;;;;;;5094706;28;20478;-90
2021/07/24 00:54:33;;;;;;;13.60;12.20;;;18.30;99.90;;;;;;5094954;28;20527;-90
2021/07/24 00:57:01;;;;;;;13.10;11.80;;;18.30;99.90;;;;;;5094464;28;20475;-90
2021/07/24 00:59:28;;;;;;;11.83;10.83;;;18.30;99.90;;;;;;5094595;28;20451;-90
2021/07/24 01:01:54;;;;;;;11.53;10.33;;;18.30;99.90;;;;;;5093817;28;20508;-90
2021/07/24 01:04:21;;;;;;;12.07;10.97;;;18.30;99.90;;;;;;5094865;28;20478;-91
2021/07/24 01:06:49;;;;;;;11.87;10.63;;;18.30;99.90;;;;;;5094566;28;20501;-90
2021/07/24 01:09:16;;;;;;;13.87;12.47;;;18.30;99.90;;;;;;5094510;28;20454;-90
2021/07/24 01:11:42;;;;;;;13.23;12.03;;;18.30;99.90;;;;;;5088986;28;20510;-90
2021/07/24 01:14:11;;;;;;;13.03;11.83;;;18.20;99.90;;;;;;5073756;28;20505;-90
2021/07/24 01:16:38;;;;;;;11.47;10.47;;;18.20;99.90;;;;;;5074145;28;20452;-91
2021/07/24 01:19:05;;;;;;;12.90;11.63;;;18.20;99.90;;;;;;5074213;28;20604;-90
2021/07/24 01:21:33;;;;;;;13.50;12.20;;;18.20;99.90;;;;;;5073859;28;20549;-90
2021/07/24 01:23:59;;;;;;;13.40;12.17;;;18.20;99.90;;;;;;5073699;28;20542;-90
2021/07/24 01:26:27;;;;;;;12.80;11.60;;;18.10;99.90;;;;;;5073590;28;20542;-90
2021/07/24 01:28:54;;;;;;;13.30;11.90;;;18.10;99.90;;;;;;5073803;28;20483;-90
2021/07/24 01:31:21;;;;;;;13.10;11.90;;;18.10;99.90;;;;;;5073931;28;20477;-90
2021/07/24 01:33:47;;;;;;;20.93;12.40;;;18.10;99.90;;;;;;5073755;28;20571;-90
2021/07/24 01:36:14;;;;;;;16.10;13.03;;;18.10;99.90;;;;;;5073781;28;20538;-91
2021/07/24 01:38:43;;;;;;;12.73;11.53;;;18.10;99.90;;;;;;5073688;28;20530;-91
2021/07/24 01:41:12;;;;;;;12.97;11.57;;;18.10;99.90;;;;;;5073545;28;20520;-90
2021/07/24 01:43:39;;;;;;;13.50;12.07;;;18.10;99.90;;;;;;5073885;28;21008;-91
2021/07/24 01:46:06;;;;;;;12.90;11.60;;;18.10;99.90;;;;;;5073817;28;20447;-90
2021/07/24 01:48:37;;;;;;;13.70;12.40;;;18.10;99.90;;;;;;5073594;28;20966;-90
2021/07/24 01:53:53;;;;;;;13.10;11.93;;;18.10;99.90;;;;;;5073366;28;20529;-91
2021/07/24 01:56:23;;;;;;;14.73;13.37;;;18.00;99.90;;;;;;5073485;28;20503;-90
2021/07/24 01:58:49;;;;;;;13.63;12.33;;;18.00;99.90;;;;;;5073201;28;20466;-90
2021/07/24 02:01:16;;;;;;;13.13;12.00;;;17.90;99.90;;;;;;5073527;28;20477;-90
2021/07/24 02:03:44;;;;;;;14.20;13.00;;;17.90;99.90;;;;;;5073068;28;20487;-90
2021/07/24 02:06:12;;;;;;;13.70;12.50;;;17.90;99.90;;;;;;5073206;28;20451;-90
2021/07/24 02:08:42;;;;;;;14.20;12.10;;;17.90;99.90;;;;;;5073327;28;20806;-90
2021/07/24 02:11:10;;;;;;;13.57;12.27;;;17.90;99.90;;;;;;5073701;28;20958;-91
2021/07/24 02:13:36;;;;;;;12.63;11.53;;;17.80;99.90;;;;;;5095649;28;20442;-90
2021/07/24 02:16:04;;;;;;;13.13;11.80;;;17.80;99.90;;;;;;5097740;28;20482;-90
2021/07/24 02:18:30;;;;;;;13.57;12.43;;;17.80;99.90;;;;;;5097626;28;20499;-90
2021/07/24 02:20:57;;;;;;;12.77;11.50;;;17.80;99.90;;;;;;5097373;28;20466;-90
2021/07/24 02:23:24;;;;;;;14.43;13.07;;;17.80;99.90;;;;;;5097841;28;20925;-91
2021/07/24 02:25:50;;;;;;;14.70;12.33;;;17.80;99.90;;;;;;5097931;28;20933;-90
2021/07/24 02:28:18;;;;;;;17.03;12.93;;;17.80;99.90;;;;;;5097532;28;20533;-91
2021/07/24 02:30:45;;;;;;;14.10;12.70;;;17.70;99.90;;;;;;5083631;28;20545;-90
2021/07/24 02:33:12;;;;;;;14.33;13.00;;;17.70;99.90;;;;;;5077119;28;20490;-90
2021/07/24 02:35:39;;;;;;;14.00;12.70;;;17.60;99.90;;;;;;5074840;28;21009;-90
2021/07/24 02:38:07;;;;;;;17.77;13.70;;;17.70;99.90;;;;;;5076822;28;20871;-90
2021/07/24 02:40:34;;;;;;;13.50;12.20;;;17.60;99.90;;;;;;5076907;28;20508;-90
2021/07/24 02:43:01;;;;;;;14.43;13.10;;;17.60;99.90;;;;;;5076836;28;20543;-90
2021/07/24 02:45:29;;;;;;;14.93;12.97;;;17.60;99.90;;;;;;5076681;28;21013;-90
2021/07/24 02:47:55;;;;;;;15.20;12.67;;;17.60;99.90;;;;;;5077092;28;20549;-90
2021/07/24 02:50:22;;;;;;;14.03;12.73;;;17.60;99.90;;;;;;5076689;28;20542;-91
2021/07/24 02:52:49;;;;;;;16.40;13.43;;;17.60;99.90;;;;;;5077174;28;20909;-90
2021/07/24 02:55:16;;;;;;;15.30;13.23;;;17.50;99.90;;;;;;5076605;28;20957;-90
2021/07/24 02:57:42;;;;;;;14.63;12.80;;;17.50;99.90;;;;;;5076687;28;20458;-91
2021/07/24 03:00:10;;;;;;;14.40;13.00;;;17.50;99.90;;;;;;5076695;28;20489;-91
2021/07/24 03:02:38;;;;;;;15.57;13.97;;;17.50;99.90;;;;;;5076578;28;20483;-91
2021/07/24 03:05:05;;;;;;;15.27;13.70;;;17.50;99.90;;;;;;5076838;28;20479;-91
2021/07/24 03:07:32;;;;;;;16.43;13.57;;;17.50;99.90;;;;;;5076682;28;20483;-90
2021/07/24 03:09:58;;;;;;;15.33;13.33;;;17.50;99.90;;;;;;5076530;28;20954;-91
2021/07/24 03:12:25;;;;;;;22.23;14.30;;;17.50;99.90;;;;;;5087187;28;20474;-90
2021/07/24 03:14:53;;;;;;;15.90;14.20;;;17.50;99.90;;;;;;5096934;28;20514;-90
2021/07/24 03:17:20;;;;;;;13.90;12.50;;;17.50;99.90;;;;;;5096750;28;20450;-90
2021/07/24 03:19:48;;;;;;;17.33;13.50;;;17.40;99.90;;;;;;5096415;28;20454;-90
2021/07/24 03:22:15;;;;;;;16.00;14.30;;;17.50;99.90;;;;;;5096462;28;20964;-90
2021/07/24 03:24:41;;;;;;;14.37;12.87;;;17.50;99.90;;;;;;5096117;28;21013;-90
2021/07/24 03:27:08;;;;;;;16.70;13.43;;;17.50;99.90;;;;;;5096463;28;20537;-90
2021/07/24 03:29:34;;;;;;;17.37;14.20;;;17.50;99.90;;;;;;5096781;28;20515;-90
2021/07/24 03:32:01;;;;;;;14.90;13.50;;;17.50;99.90;;;;;;5096199;28;20537;-91
2021/07/24 03:34:27;;;;;;;15.43;13.70;;;17.50;99.90;;;;;;5096293;28;20803;-90
2021/07/24 03:36:55;;;;;;;15.83;14.20;;;17.40;99.90;;;;;;5095911;28;20984;-90
2021/07/24 03:39:24;;;;;;;17.20;14.40;;;17.50;99.90;;;;;;5096173;28;20545;-90
2021/07/24 03:41:50;;;;;;;15.47;13.93;;;17.50;99.90;;;;;;5095966;28;20478;-91
2021/07/24 03:44:17;;;;;;;15.83;14.23;;;17.50;99.90;;;;;;5096115;28;20550;-90
2021/07/24 03:46:43;;;;;;;15.80;14.20;;;17.50;99.90;;;;;;5095849;28;20447;-90
2021/07/24 03:49:10;;;;;;;15.57;13.97;;;17.50;99.90;;;;;;5096013;28;20485;-90
2021/07/24 03:51:39;;;;;;;14.97;13.50;;;17.50;99.90;;;;;;5095768;28;21012;-90
2021/07/24 03:54:07;;;;;;;18.53;14.47;;;17.50;99.90;;;;;;5095523;28;20478;-90
2021/07/24 03:56:33;;;;;;;15.83;14.37;;;17.60;99.90;;;;;;5095758;28;20550;-90
2021/07/24 03:59:00;;;;;;;16.90;15.20;;;17.60;99.90;;;;;;5095905;28;20446;-90
2021/07/24 04:01:28;;;;;;;17.43;15.17;;;17.70;99.90;;;;;;5095717;28;20454;-91
2021/07/24 04:03:54;;;;;;;15.40;14.00;;;17.60;99.90;;;;;;5095859;28;20663;-90
2021/07/24 04:06:23;;;;;;;16.50;14.77;;;17.70;99.90;;;;;;5095550;28;21004;-90
2021/07/24 04:08:50;;;;;;;16.10;14.50;;;17.70;99.90;;;;;;5095484;28;20446;-90
2021/07/24 04:11:20;;;;;;;15.20;13.70;;;17.80;99.90;;;;;;5093827;28;20447;-90
2021/07/24 04:13:47;;;;;;;15.23;13.83;;;17.90;99.90;;;;;;5075199;28;20447;-90
2021/07/24 04:16:14;;;;;;;14.60;13.20;;;17.90;99.90;;;;;;5075246;28;20479;-90
2021/07/24 04:18:40;;;;;;;16.20;13.90;;;18.00;99.90;;;;;;5075070;28;20539;-90
2021/07/24 04:21:07;;;;;;;15.63;14.13;;;18.00;99.90;;;;;;5075040;28;20543;-90
2021/07/24 04:23:33;;;;;;;15.17;13.57;;;18.10;99.90;;;;;;5075098;28;20487;-90
2021/07/24 04:26:00;;;;;;;14.67;13.27;;;18.10;99.90;;;;;;5074885;28;20546;-90
2021/07/24 04:28:28;;;;;;;16.87;15.17;;;18.20;99.90;;;;;;5074911;28;20487;-90
2021/07/24 04:30:54;;;;;;;15.97;14.30;;;18.30;99.90;;;;;;5074914;28;20895;-90
2021/07/24 04:33:21;;;;;;;15.90;13.97;;;18.30;99.90;;;;;;5074828;28;20546;-90
2021/07/24 04:35:49;;;;;;;15.70;14.13;;;18.40;99.90;;;;;;5074793;28;20507;-90
2021/07/24 04:38:17;;;;;;;19.70;14.10;;;18.50;99.90;;;;;;5075066;28;20855;-90
2021/07/24 04:40:44;;;;;;;15.43;13.93;;;18.60;99.90;;;;;;5075019;28;20479;-90
2021/07/24 04:43:13;;;;;;;16.10;14.50;;;18.60;99.90;;;;;;5074903;28;20487;-89
2021/07/24 04:45:42;;;;;;;16.57;13.90;;;18.70;99.90;;;;;;5074616;28;20951;-90
2021/07/24 04:48:09;;;;;;;16.37;14.67;;;18.80;99.90;;;;;;5074410;28;20483;-90
2021/07/24 04:50:38;;;;;;;16.03;14.43;;;18.90;99.90;;;;;;5074366;28;20479;-90
2021/07/24 04:53:05;;;;;;;15.73;13.67;;;19.00;99.90;;;;;;5074107;28;20475;-90
2021/07/24 04:55:32;;;;;;;15.70;14.10;;;19.10;99.90;;;;;;5074164;28;20572;-90
2021/07/24 04:57:59;;;;;;;15.90;14.00;;;19.10;99.90;;;;;;5074337;28;20542;-90
2021/07/24 05:00:25;;;;;;;16.13;14.53;;;19.30;99.90;;;;;;5074497;28;20479;-90
2021/07/24 05:02:53;;;;;;;14.17;12.87;;;19.30;99.90;;;;;;5074046;28;20502;-90
2021/07/24 05:05:20;;;;;;;16.33;14.63;;;19.40;99.90;;;;;;5074382;28;20479;-90
2021/07/24 05:07:46;;;;;;;16.40;14.67;;;19.50;99.90;;;;;;5074261;28;20475;-90
2021/07/24 05:10:13;;;;;;;14.87;13.43;;;19.60;99.90;;;;;;5074280;28;20505;-90
2021/07/24 05:12:40;;;;;;;15.63;13.60;;;19.70;99.90;;;;;;5087192;28;20478;-90
2021/07/24 05:15:08;;;;;;;14.17;12.77;;;19.80;99.90;;;;;;5094360;28;20506;-90
2021/07/24 05:17:39;;;;;;;14.73;13.23;;;19.80;99.90;;;;;;5094225;28;20485;-90
2021/07/24 05:20:08;;;;;;;15.70;14.10;;;19.90;99.90;;;;;;5094667;28;20446;-90
2021/07/24 05:22:34;;;;;;;13.97;12.57;;;19.90;99.90;;;;;;5094692;28;20530;-89
2021/07/24 05:25:01;;;;;;;15.60;14.07;;;20.00;99.90;;;;;;5094417;28;20482;-90
2021/07/24 05:27:27;;;;;;;14.97;13.37;;;20.10;99.90;;;;;;5094321;28;20481;-90
2021/07/24 05:29:54;;;;;;;15.63;14.03;;;20.20;99.90;;;;;;5094307;28;20504;-90
2021/07/24 05:32:20;;;;;;;14.33;13.00;;;20.30;99.90;;;;;;5094177;28;20525;-90
2021/07/24 05:34:47;;;;;;;14.13;12.40;;;20.30;99.90;;;;;;5094110;28;20549;-90
2021/07/24 05:37:15;;;;;;;17.10;13.37;;;20.40;99.90;;;;;;5094115;28;20483;-90
2021/07/24 05:39:41;;;;;;;15.00;13.40;;;20.60;99.90;;;;;;5094333;28;20550;-90
2021/07/24 05:42:08;;;;;;;13.60;12.30;;;20.70;99.90;;;;;;5094311;28;20454;-90
2021/07/24 05:44:34;;;;;;;13.53;12.23;;;20.70;99.90;;;;;;5094211;28;20529;-90
2021/07/24 05:47:02;;;;;;;14.13;12.63;;;20.90;99.90;;;;;;5094410;28;20541;-90
2021/07/24 05:49:29;;;;;;;13.40;12.07;;;21.00;99.90;;;;;;5093967;28;20779;-90
2021/07/24 05:51:55;;;;;;;14.60;13.07;;;21.20;99.90;;;;;;5094197;28;20475;-91
2021/07/24 05:54:26;;;;;;;13.93;12.53;;;21.40;99.90;;;;;;5093747;28;20485;-90
2021/07/24 05:56:52;;;;;;;14.73;12.93;;;21.60;99.90;;;;;;5093645;28;20526;-91
2021/07/24 05:59:19;;;;;;;14.07;12.47;;;21.70;99.90;;;;;;5093823;28;20537;-90
2021/07/24 06:01:45;;;;;;;13.00;11.70;;;22.00;99.90;;;;;;5094484;28;20545;-91
2021/07/24 06:04:12;;;;;;;13.87;12.40;;;22.20;99.90;;;;;;5094224;28;20486;-90
2021/07/24 06:06:38;;;;;;;13.20;12.00;;;22.50;99.90;;;;;;5094647;28;20478;-90
2021/07/24 06:09:05;;;;;;;12.40;11.20;;;22.90;99.90;;;;;;5094682;28;20471;-91
2021/07/24 06:11:34;;;;;;;12.40;11.20;;;23.30;99.90;;;;;;5090759;28;20483;-90
2021/07/24 06:14:01;;;;;;;14.03;12.63;;;23.60;99.90;;;;;;5073454;28;20454;-91
2021/07/24 06:16:27;;;;;;;12.00;10.90;;;24.00;99.90;;;;;;5074791;28;20537;-90
2021/07/24 06:18:54;;;;;;;12.73;11.43;;;24.40;99.90;;;;;;5073082;28;20521;-90
2021/07/24 06:21:21;;;;;;;12.60;11.47;;;24.70;99.90;;;;;;5073621;28;20478;-91
2021/07/24 06:23:47;;;;;;;13.17;11.93;;;25.00;99.90;;;;;;5073291;28;20475;-90
2021/07/24 06:26:14;;;;;;;13.17;11.87;;;25.30;99.90;;;;;;5073432;28;20455;-91
2021/07/24 06:28:42;;;;;;;12.17;11.07;;;25.50;99.90;;;;;;5073578;28;20448;-90
2021/07/24 06:31:08;;;;;;;13.83;12.47;;;25.80;99.90;;;;;;5073265;28;20482;-91
2021/07/24 06:33:35;;;;;;;12.43;11.33;;;26.00;99.90;;;;;;5073763;28;20447;-91
2021/07/24 06:36:01;;;;;;;12.60;11.37;;;26.20;99.90;;;;;;5073344;28;20482;-91
2021/07/24 06:38:29;;;;;;;13.33;12.13;;;26.40;99.90;;;;;;5073167;28;20513;-90
2021/07/24 06:40:56;;;;;;;12.20;11.10;;;26.60;99.90;;;;;;5072457;28;20451;-91
2021/07/24 06:43:23;;;;;;;12.23;11.13;;;26.70;99.90;;;;;;5072782;28;20485;-90
2021/07/24 06:45:51;;;;;;;11.80;10.70;;;27.00;99.90;;;;;;5073580;28;20497;-91
2021/07/24 06:48:17;;;;;;;12.53;11.43;;;27.10;99.90;;;;;;5073287;28;20455;-91
2021/07/24 06:50:44;;;;;;;13.53;12.17;;;27.20;99.90;;;;;;5073042;28;20497;-90
2021/07/24 06:53:10;;;;;;;11.53;10.37;;;27.40;99.90;;;;;;5072937;28;20509;-90
2021/07/24 06:55:37;;;;;;;12.17;10.53;;;27.50;99.90;;;;;;5072366;28;20578;-90
2021/07/24 06:58:03;;;;;;;11.63;10.50;;;27.60;99.90;;;;;;5073028;28;20447;-90
2021/07/24 07:00:30;;;;;;;12.30;11.20;;;27.70;99.90;;;;;;5075158;28;20512;-90
2021/07/24 07:02:59;;;;;;;13.03;11.73;;;27.80;99.90;;;;;;5076713;28;20544;-90
2021/07/24 07:05:26;;;;;;;11.00;10.00;;;27.90;99.90;;;;;;5077002;28;20490;-91
2021/07/24 07:07:53;;;;;;;10.93;9.83;;;28.00;99.90;;;;;;5076357;28;20451;-91
2021/07/24 07:10:20;;;;;;;11.80;10.80;;;28.10;99.90;;;;;;5076628;28;20453;-91
2021/07/24 07:12:46;;;;;;;12.37;11.20;;;28.20;99.90;;;;;;5091080;28;20445;-91
2021/07/24 07:15:13;;;;;;;13.17;11.93;;;28.30;99.90;;;;;;5096940;28;20890;-91
2021/07/24 07:17:40;;;;;;;12.60;11.30;;;28.30;99.90;;;;;;5096573;28;20481;-91
2021/07/24 07:20:09;;;;;;;13.13;11.87;;;28.30;99.90;;;;;;5096847;28;20442;-91
2021/07/24 07:22:36;;;;;;;12.97;11.87;;;28.40;99.90;;;;;;5096538;28;20442;-92
2021/07/24 07:25:02;;;;;;;13.30;12.00;;;28.40;99.90;;;;;;5096844;28;20442;-91
2021/07/24 07:27:29;;;;;;;12.60;11.50;;;28.40;99.90;;;;;;5096786;28;20537;-91
2021/07/24 07:29:56;;;;;;;14.50;11.57;;;28.50;99.90;;;;;;5096565;28;20482;-92
2021/07/24 07:32:22;;;;;;;12.93;11.47;;;28.60;99.90;;;;;;5096452;28;20458;-91
2021/07/24 07:34:49;;;;;;;11.50;10.47;;;28.60;99.90;;;;;;5096375;28;20852;-91
2021/07/24 07:37:17;;;;;;;12.33;11.10;;;28.80;99.90;;;;;;5096268;28;20479;-92
2021/07/24 07:39:43;;;;;;;12.20;11.03;;;28.80;99.90;;;;;;5096473;28;20446;-91
2021/07/24 07:42:10;;;;;;;14.53;13.13;;;28.90;99.90;;;;;;5096410;28;20885;-92
2021/07/24 07:44:36;;;;;;;13.20;11.90;;;28.90;99.90;;;;;;5096435;28;20450;-91
2021/07/24 07:47:03;;;;;;;12.60;11.50;;;29.10;99.90;;;;;;5096235;28;20934;-92
2021/07/24 07:49:30;;;;;;;11.93;10.77;;;29.00;99.90;;;;;;5095970;28;20451;-91
2021/07/24 07:51:56;;;;;;;16.50;14.50;;;29.00;99.90;;;;;;5096514;28;20486;-91
2021/07/24 07:54:24;;;;;;;14.63;13.23;;;29.00;99.90;;;;;;5096122;28;20447;-91
2021/07/24 07:56:51;;;;;;;13.43;11.40;;;29.00;99.90;;;;;;5096017;28;20525;-92
2021/07/24 07:59:17;;;;;;;12.80;11.60;;;29.10;99.90;;;;;;5095957;28;20446;-91
2021/07/24 08:01:46;;;;;;;12.20;11.03;;;29.10;99.90;;;;;;5095844;28;20447;-91
2021/07/24 08:04:13;;;;;;;12.60;11.50;;;29.20;99.90;;;;;;5095913;28;20447;-92
2021/07/24 08:06:40;;;;;;;12.53;11.23;;;29.30;99.90;;;;;;5095929;28;20476;-92
2021/07/24 08:09:06;;;;;;;12.23;11.03;;;29.30;99.90;;;;;;5096220;28;20497;-92
2021/07/24 08:11:34;;;;;;;12.70;11.53;;;29.30;99.90;;;;;;5091733;28;20962;-92
2021/07/24 08:14:00;;;;;;;12.90;11.70;;;29.30;99.90;;;;;;5076416;28;20478;-91
2021/07/24 08:16:27;;;;;;;14.53;13.13;;;29.30;99.90;;;;;;5075371;28;20475;-91
2021/07/24 08:18:54;;;;;;;13.03;11.67;;;29.30;99.90;;;;;;5075177;28;20863;-92
2021/07/24 08:21:20;;;;;;;12.87;11.67;;;29.40;99.90;;;;;;5075271;28;20447;-91
2021/07/24 08:23:47;;;;;;;12.83;11.43;;;29.30;99.90;;;;;;5075256;28;20479;-92
2021/07/24 08:26:13;;;;;;;12.20;11.03;;;29.20;99.90;;;;;;5075450;28;20482;-91
2021/07/24 08:28:41;;;;;;;12.30;11.17;;;29.10;99.90;;;;;;5075257;28;20831;-92
2021/07/24 08:31:08;;;;;;;13.97;12.50;;;29.10;99.90;;;;;;5074842;28;20464;-91
2021/07/24 08:33:35;;;;;;;11.40;10.37;;;29.10;99.90;;;;;;5074918;28;20452;-92
2021/07/24 08:36:02;;;;;;;17.00;13.80;;;28.90;99.90;;;;;;5075102;28;20497;-90
2021/07/24 08:38:28;;;;;;;11.97;10.97;;;28.80;99.90;;;;;;5075079;28;20489;-92
2021/07/24 08:40:59;;;;;;;14.43;12.23;;;28.80;99.90;;;;;;5075290;28;20455;-91
2021/07/24 08:43:26;;;;;;;13.70;12.43;;;28.60;99.90;;;;;;5074991;28;20516;-90
2021/07/24 08:45:59;;;;;;;12.50;11.30;;;28.60;99.90;;;;;;5074944;28;20510;-90
2021/07/24 08:48:26;;;;;;;12.40;11.20;;;28.50;99.90;;;;;;5075396;28;20470;-92
2021/07/24 08:50:55;;;;;;;14.87;13.37;;;28.40;99.90;;;;;;5075205;28;20451;-91
2021/07/24 08:53:28;;;;;;;13.07;11.80;;;28.40;99.90;;;;;;5074972;28;20538;-91
2021/07/24 08:56:02;;;;;;;13.77;12.47;;;28.30;99.90;;;;;;5074837;28;20479;-92
2021/07/24 08:58:32;;;;;;;12.00;10.90;;;28.30;99.90;;;;;;5074925;28;20460;-91
2021/07/24 09:01:00;;;;;;;13.43;12.33;;;28.20;99.90;;;;;;5074997;28;20447;-90
2021/07/24 09:03:32;;;;;;;12.50;11.30;;;28.20;99.90;;;;;;5075525;28;20443;-91
2021/07/24 09:05:59;;;;;;;12.27;11.10;;;28.10;99.90;;;;;;5075036;28;20505;-89
2021/07/24 09:08:26;;;;;;;13.63;11.87;;;28.10;99.90;;;;;;5074950;28;20448;-91
2021/07/24 09:10:53;;;;;;;13.00;11.33;;;28.10;99.90;;;;;;5074886;28;20447;-92
2021/07/24 09:13:20;;;;;;;12.20;11.00;;;28.10;99.90;;;;;;5093534;28;20529;-90
2021/07/24 09:15:47;;;;;;;15.37;13.87;;;28.20;99.90;;;;;;5094811;28;20443;-91
2021/07/24 09:18:15;;;;;;;12.40;11.20;;;28.10;99.90;;;;;;5095266;28;20450;-92
2021/07/24 09:20:42;;;;;;;11.93;10.73;;;28.10;99.90;;;;;;5094924;28;20525;-92
2021/07/24 09:23:26;;;;;;;13.53;11.63;;;28.10;99.90;;;;;;5094108;28;20564;-91
2021/07/24 09:25:53;;;;;;;11.63;10.63;;;28.10;99.90;;;;;;5094678;28;20521;-91
2021/07/24 09:28:19;;;;;;;11.07;10.07;;;28.00;99.90;;;;;;5094933;28;20454;-91
2021/07/24 09:30:46;;;;;;;11.77;10.43;;;28.10;99.90;;;;;;5094687;28;20451;-92
2021/07/24 09:33:15;;;;;;;12.87;11.60;;;28.10;99.90;;;;;;5094523;28;20516;-92
2021/07/24 09:35:43;;;;;;;11.60;10.40;;;28.10;99.90;;;;;;5094545;28;20791;-91
2021/07/24 09:38:16;;;;;;;13.13;11.83;;;28.10;99.90;;;;;;5094795;28;20483;-92
2021/07/24 09:40:44;;;;;;;12.53;11.33;;;28.00;99.90;;;;;;5102327;28;20818;-91
2021/07/24 09:43:29;;;;;;;11.67;10.67;;;28.10;99.90;;;;;;5095023;28;20477;-92
2021/07/24 09:46:11;;;;;;;11.30;10.40;;;28.00;99.90;;;;;;5094255;28;20452;-91
2021/07/24 09:48:41;;;;;;;11.57;10.57;;;28.00;99.90;;;;;;5094279;28;20478;-90
2021/07/24 09:51:07;;;;;;;12.13;10.90;;;27.90;99.90;;;;;;5094298;28;20442;-90
2021/07/24 09:53:38;;;;;;;10.10;9.20;;;27.90;99.90;;;;;;5094148;28;20447;-90
2021/07/24 09:56:05;;;;;;;14.83;11.23;;;27.80;99.90;;;;;;5093838;28;20512;-90
2021/07/24 09:58:32;;;;;;;14.60;13.20;;;27.80;99.90;;;;;;5094099;28;20916;-91
2021/07/24 10:01:04;;;;;;;13.60;11.30;;;27.80;99.90;;;;;;5094389;28;20579;-90
2021/07/24 10:03:31;;;;;;;11.57;10.40;;;27.80;99.90;;;;;;5094132;28;20447;-91
2021/07/24 10:06:00;;;;;;;11.40;10.20;;;27.80;99.90;;;;;;5094099;28;20848;-91
2021/07/24 10:08:31;;;;;;;12.10;10.43;;;27.90;99.90;;;;;;5093921;28;20786;-91
2021/07/24 10:10:58;;;;;;;10.50;9.50;;;27.90;99.90;;;;;;5093910;28;20500;-91
2021/07/24 10:13:25;;;;;;;11.77;10.67;;;27.90;99.90;;;;;;5074516;28;20791;-91
2021/07/24 10:15:52;;;;;;;11.50;10.43;;;28.00;99.90;;;;;;5073543;28;20451;-91
2021/07/24 10:18:19;;;;;;;11.23;10.23;;;28.00;99.90;;;;;;5073796;28;20479;-92
2021/07/24 10:20:47;;;;;;;12.70;10.87;;;28.00;99.90;;;;;;5073278;28;20479;-92
2021/07/24 10:23:20;;;;;;;10.57;9.57;;;28.00;99.90;;;;;;5073544;28;20502;-92
2021/07/24 10:25:50;;;;;;;10.70;9.80;;;28.00;99.90;;;;;;5073589;28;20462;-91
2021/07/24 10:28:24;;;;;;;10.30;9.30;;;28.10;99.90;;;;;;5073635;28;20451;-92
2021/07/24 10:30:53;;;;;;;10.33;9.23;;;28.10;99.90;;;;;;5073659;28;20454;-92
2021/07/24 10:33:22;;;;;;;10.30;9.40;;;28.10;99.90;;;;;;5073695;28;20447;-92
2021/07/24 10:35:49;;;;;;;11.43;10.30;;;28.10;99.90;;;;;;5077646;28;20501;-92
2021/07/24 10:38:31;;;;;;;11.70;10.60;;;28.10;99.90;;;;;;5077364;28;21017;-91
2021/07/24 10:41:37;;;;;;;10.77;9.73;;;28.00;99.90;;;;;;5077443;28;20838;-93
2021/07/24 10:44:06;;;;;;;12.37;10.70;;;28.30;99.90;;;;;;5078068;28;20475;-91
2021/07/24 10:47:21;;;;;;;11.03;10.03;;;28.40;99.90;;;;;;5077451;28;20458;-92
2021/07/24 10:49:58;;;;;;;10.27;9.37;;;28.70;99.70;;;;;;4996725;28;20538;-92
2021/07/24 10:52:25;;;;;;;10.30;9.50;;;29.00;99.90;;;;;;5074527;28;20949;-92
2021/07/24 10:55:14;;;;;;;10.20;9.30;;;29.20;99.70;;;;;;5077197;28;20949;-92
2021/07/24 10:58:06;;;;;;;11.87;9.57;;;29.40;99.60;;;;;;5077502;28;20485;-91
2021/07/24 11:00:51;;;;;;;12.00;10.80;;;29.40;99.20;;;;;;5077667;28;20854;-90
2021/07/24 11:03:34;;;;;;;10.20;9.33;;;29.40;99.20;;;;;;5077165;28;20447;-91
2021/07/24 11:06:20;;;;;;;10.67;9.67;;;29.30;98.60;;;;;;5077558;28;20447;-91
2021/07/24 11:09:09;;;;;;;10.00;9.00;;;29.20;99.70;;;;;;5077218;28;20950;-92
2021/07/24 11:11:41;;;;;;;10.00;9.10;;;29.10;99.60;;;;;;5081319;28;20797;-92
2021/07/24 11:14:09;;;;;;;11.57;10.50;;;29.00;98.90;;;;;;5097026;28;20840;-92
2021/07/24 11:17:14;;;;;;;9.93;9.00;;;28.90;99.20;;;;;;5097320;28;20470;-92
2021/07/24 11:19:41;;;;;;;10.43;9.50;;;28.80;99.90;;;;;;5097464;28;20453;-92
2021/07/24 11:22:09;;;;;;;11.10;9.30;;;28.90;99.20;;;;;;5096683;28;20941;-92
2021/07/24 11:24:35;;;;;;;10.53;9.57;;;28.80;99.10;;;;;;5097503;28;20499;-91
2021/07/24 11:27:04;;;;;;;9.70;8.90;;;28.80;99.90;;;;;;5096871;28;20446;-92
2021/07/24 11:29:30;;;;;;;13.63;12.33;;;28.80;99.60;;;;;;5097328;28;20499;-92
2021/07/24 11:32:00;;;;;;;12.43;11.23;;;28.70;99.60;;;;;;5096708;28;20449;-90
2021/07/24 11:34:28;;;;;;;10.87;9.70;;;28.80;99.40;;;;;;5096676;28;20447;-92
2021/07/24 11:36:54;;;;;;;10.20;9.27;;;28.80;99.00;;;;;;5096281;28;20968;-91
2021/07/24 11:39:24;;;;;;;10.70;9.60;;;28.70;98.60;;;;;;5096673;28;20512;-92
2021/07/24 11:41:50;;;;;;;10.23;9.30;;;28.70;98.60;;;;;;5096149;28;20453;-91
2021/07/24 11:44:25;;;;;;;10.17;9.30;;;28.70;98.10;;;;;;5096407;28;20864;-93
2021/07/24 11:46:56;;;;;;;9.07;8.37;;;28.70;98.70;;;;;;5095159;28;20450;-91
2021/07/24 11:49:23;;;;;;;9.60;8.80;;;28.80;98.20;;;;;;5096157;28;20949;-92
2021/07/24 11:51:50;;;;;;;9.67;8.67;;;28.80;98.50;;;;;;5096116;28;20504;-91
2021/07/24 11:54:26;;;;;;;12.47;9.77;;;28.90;97.80;;;;;;5096012;28;20794;-92
2021/07/24 11:56:53;;;;;;;11.87;10.87;;;29.10;97.50;;;;;;5095746;28;20904;-92
2021/07/24 11:59:19;;;;;;;10.23;9.20;;;29.30;98.00;;;;;;5096181;28;20486;-92
2021/07/24 12:01:47;;;;;;;10.70;9.70;;;29.60;97.90;;;;;;5095782;28;20447;-91
2021/07/24 12:04:16;;;;;;;10.80;8.80;;;29.80;97.90;;;;;;5096004;28;20519;-92
2021/07/24 12:06:55;;;;;;;12.77;11.47;;;29.90;96.70;;;;;;5095655;28;20972;-92
2021/07/24 12:09:22;;;;;;;10.33;9.30;;;30.00;96.60;;;;;;5095778;28;20450;-92
2021/07/24 12:11:55;;;;;;;9.07;8.27;;;30.00;96.10;;;;;;5089790;28;20842;-92
2021/07/24 12:14:23;;;;;;;9.70;8.70;;;30.00;95.70;;;;;;5075449;28;20962;-92
2021/07/24 12:17:03;;;;;;;10.30;9.40;;;29.90;95.90;;;;;;5075382;28;20893;-92
2021/07/24 12:19:36;;;;;;;12.73;11.53;;;29.80;96.20;;;;;;5075575;28;20554;-91
2021/07/24 12:22:13;;;;;;;10.60;9.70;;;29.80;96.50;;;;;;5075344;28;20447;-92
2021/07/24 12:24:41;;;;;;;9.00;8.20;;;29.70;96.30;;;;;;5075310;28;20506;-90
2021/07/24 12:27:09;;;;;;;11.10;9.30;;;29.70;96.80;;;;;;5075446;28;20819;-92
2021/07/24 12:29:49;;;;;;;11.53;10.53;;;29.70;96.60;;;;;;5075394;28;20494;-90
2021/07/24 12:32:18;;;;;;;11.27;10.27;;;29.60;96.50;;;;;;5075176;28;20447;-90
2021/07/24 12:34:46;;;;;;;10.27;9.47;;;29.50;96.60;;;;;;5075167;28;20509;-91
2021/07/24 12:37:27;;;;;;;10.30;8.63;;;29.50;96.80;;;;;;5074838;28;20561;-91